sensor_id;sensor_type;location;lat;lon;timestamp;P1;durP1;ratioP1;P2;durP2;ratioP2
70558;SDS011;58108;48.094;11.838;2022-08-19T00:01:17;7.20;;;4.40;;
70558;SDS011;58108;48.094;11.838;2022-08-19T00:03:42;6.73;;;3.80;;
70558;SDS011;58108;48.094;11.838;2022-08-19T00:06:08;9.05;;;4.60;;
70558;SDS011;58108;48.094;11.838;2022-08-19T00:08:34;7.70;;;4.40;;
70558;SDS011;58108;48.094;11.838;2022-08-19T00:11:00;7.18;;;3.58;;
70558;SDS011;58108;48.094;11.838;2022-08-19T00:13:25;7.83;;;4.27;;
70558;SDS011;58108;48.094;11.838;2022-08-19T00:15:53;6.72;;;4.00;;
70558;SDS011;58108;48.094;11.838;2022-08-19T00:18:19;7.43;;;3.67;;
70558;SDS011;58108;48.094;11.838;2022-08-19T00:20:44;6.75;;;4.25;;
70558;SDS011;58108;48.094;11.838;2022-08-19T00:23:10;6.40;;;3.83;;
70558;SDS011;58108;48.094;11.838;2022-08-19T00:25:35;5.90;;;3.57;;
70558;SDS011;58108;48.094;11.838;2022-08-19T00:28:01;7.53;;;4.20;;
70558;SDS011;58108;48.094;11.838;2022-08-19T00:30:27;6.63;;;3.40;;
70558;SDS011;58108;48.094;11.838;2022-08-19T00:32:53;6.70;;;3.85;;
70558;SDS011;58108;48.094;11.838;2022-08-19T00:35:20;5.90;;;3.50;;
70558;SDS011;58108;48.094;11.838;2022-08-19T00:37:47;7.07;;;3.50;;
70558;SDS011;58108;48.094;11.838;2022-08-19T00:40:13;6.32;;;3.38;;
70558;SDS011;58108;48.094;11.838;2022-08-19T00:42:39;6.57;;;3.55;;
70558;SDS011;58108;48.094;11.838;2022-08-19T00:45:09;5.90;;;3.70;;
70558;SDS011;58108;48.094;11.838;2022-08-19T00:47:39;5.85;;;3.25;;
70558;SDS011;58108;48.094;11.838;2022-08-19T00:50:05;5.55;;;3.00;;
70558;SDS011;58108;48.094;11.838;2022-08-19T00:52:33;4.97;;;2.67;;
70558;SDS011;58108;48.094;11.838;2022-08-19T00:55:03;5.82;;;3.35;;
70558;SDS011;58108;48.094;11.838;2022-08-19T00:57:34;5.95;;;3.20;;
70558;SDS011;58108;48.094;11.838;2022-08-19T01:00:05;5.20;;;3.20;;
70558;SDS011;58108;48.094;11.838;2022-08-19T01:02:34;4.80;;;2.70;;
70558;SDS011;58108;48.094;11.838;2022-08-19T01:05:00;4.70;;;2.57;;
70558;SDS011;58108;48.094;11.838;2022-08-19T01:07:27;5.03;;;2.75;;
70558;SDS011;58108;48.094;11.838;2022-08-19T01:09:52;5.23;;;3.03;;
70558;SDS011;58108;48.094;11.838;2022-08-19T01:12:19;5.47;;;2.72;;
70558;SDS011;58108;48.094;11.838;2022-08-19T01:14:45;4.67;;;2.77;;
70558;SDS011;58108;48.094;11.838;2022-08-19T01:17:12;5.05;;;2.58;;
70558;SDS011;58108;48.094;11.838;2022-08-19T01:19:39;4.97;;;2.75;;
70558;SDS011;58108;48.094;11.838;2022-08-19T01:24:41;5.53;;;2.72;;
70558;SDS011;58108;48.094;11.838;2022-08-19T01:27:07;4.43;;;2.53;;
70558;SDS011;58108;48.094;11.838;2022-08-19T01:29:33;4.97;;;2.92;;
70558;SDS011;58108;48.094;11.838;2022-08-19T01:32:00;5.20;;;2.70;;
70558;SDS011;58108;48.094;11.838;2022-08-19T01:34:26;5.13;;;2.90;;
70558;SDS011;58108;48.094;11.838;2022-08-19T01:36:51;4.63;;;2.70;;
70558;SDS011;58108;48.094;11.838;2022-08-19T01:39:18;5.80;;;2.80;;
70558;SDS011;58108;48.094;11.838;2022-08-19T01:41:46;4.60;;;2.60;;
70558;SDS011;58108;48.094;11.838;2022-08-19T01:44:13;5.28;;;2.60;;
70558;SDS011;58108;48.094;11.838;2022-08-19T01:46:39;4.50;;;2.45;;
70558;SDS011;58108;48.094;11.838;2022-08-19T01:49:06;6.45;;;2.42;;
70558;SDS011;58108;48.094;11.838;2022-08-19T01:51:33;4.20;;;2.37;;
70558;SDS011;58108;48.094;11.838;2022-08-19T01:53:59;4.50;;;2.53;;
70558;SDS011;58108;48.094;11.838;2022-08-19T01:56:24;4.47;;;2.47;;
70558;SDS011;58108;48.094;11.838;2022-08-19T01:58:52;5.18;;;2.40;;
70558;SDS011;58108;48.094;11.838;2022-08-19T02:01:20;4.63;;;2.50;;
70558;SDS011;58108;48.094;11.838;2022-08-19T02:03:46;3.43;;;1.70;;
70558;SDS011;58108;48.094;11.838;2022-08-19T02:06:11;5.37;;;2.20;;
70558;SDS011;58108;48.094;11.838;2022-08-19T02:08:38;3.97;;;1.85;;
70558;SDS011;58108;48.094;11.838;2022-08-19T02:11:05;4.53;;;2.17;;
70558;SDS011;58108;48.094;11.838;2022-08-19T02:13:31;4.25;;;2.30;;
70558;SDS011;58108;48.094;11.838;2022-08-19T02:15:56;3.70;;;1.90;;
70558;SDS011;58108;48.094;11.838;2022-08-19T02:18:22;4.10;;;2.00;;
70558;SDS011;58108;48.094;11.838;2022-08-19T02:20:48;5.03;;;2.60;;
70558;SDS011;58108;48.094;11.838;2022-08-19T02:23:14;3.88;;;2.03;;
70558;SDS011;58108;48.094;11.838;2022-08-19T02:25:41;5.00;;;2.60;;
70558;SDS011;58108;48.094;11.838;2022-08-19T02:28:09;4.90;;;2.50;;
70558;SDS011;58108;48.094;11.838;2022-08-19T02:30:35;3.83;;;1.65;;
70558;SDS011;58108;48.094;11.838;2022-08-19T02:33:00;4.30;;;2.20;;
70558;SDS011;58108;48.094;11.838;2022-08-19T02:35:25;4.60;;;2.30;;
70558;SDS011;58108;48.094;11.838;2022-08-19T02:37:51;3.87;;;1.87;;
70558;SDS011;58108;48.094;11.838;2022-08-19T02:40:35;4.07;;;2.08;;
70558;SDS011;58108;48.094;11.838;2022-08-19T02:43:01;4.68;;;2.08;;
70558;SDS011;58108;48.094;11.838;2022-08-19T02:45:31;4.13;;;2.10;;
70558;SDS011;58108;48.094;11.838;2022-08-19T02:47:58;4.37;;;2.20;;
70558;SDS011;58108;48.094;11.838;2022-08-19T02:50:23;4.10;;;2.40;;
70558;SDS011;58108;48.094;11.838;2022-08-19T02:52:49;5.03;;;2.20;;
70558;SDS011;58108;48.094;11.838;2022-08-19T02:55:14;4.10;;;2.20;;
70558;SDS011;58108;48.094;11.838;2022-08-19T02:57:39;4.27;;;2.03;;
70558;SDS011;58108;48.094;11.838;2022-08-19T03:00:06;4.60;;;2.28;;
70558;SDS011;58108;48.094;11.838;2022-08-19T03:02:33;4.78;;;2.35;;
70558;SDS011;58108;48.094;11.838;2022-08-19T03:04:58;4.07;;;2.20;;
70558;SDS011;58108;48.094;11.838;2022-08-19T03:07:24;4.47;;;2.30;;
70558;SDS011;58108;48.094;11.838;2022-08-19T03:09:49;3.97;;;1.27;;
70558;SDS011;58108;48.094;11.838;2022-08-19T03:12:14;4.40;;;2.10;;
70558;SDS011;58108;48.094;11.838;2022-08-19T03:14:39;4.17;;;1.93;;
70558;SDS011;58108;48.094;11.838;2022-08-19T03:17:06;4.75;;;2.08;;
70558;SDS011;58108;48.094;11.838;2022-08-19T03:19:31;3.97;;;2.00;;
70558;SDS011;58108;48.094;11.838;2022-08-19T03:21:57;5.10;;;2.20;;
70558;SDS011;58108;48.094;11.838;2022-08-19T03:24:23;4.23;;;2.10;;
70558;SDS011;58108;48.094;11.838;2022-08-19T03:26:50;5.50;;;2.33;;
70558;SDS011;58108;48.094;11.838;2022-08-19T03:29:17;4.35;;;2.10;;
70558;SDS011;58108;48.094;11.838;2022-08-19T03:31:44;4.53;;;2.10;;
70558;SDS011;58108;48.094;11.838;2022-08-19T03:34:10;4.80;;;2.40;;
70558;SDS011;58108;48.094;11.838;2022-08-19T03:36:57;4.40;;;2.28;;
70558;SDS011;58108;48.094;11.838;2022-08-19T03:39:25;4.88;;;2.40;;
70558;SDS011;58108;48.094;11.838;2022-08-19T03:41:52;5.27;;;2.17;;
70558;SDS011;58108;48.094;11.838;2022-08-19T03:44:22;3.70;;;2.00;;
70558;SDS011;58108;48.094;11.838;2022-08-19T03:46:54;4.55;;;2.05;;
70558;SDS011;58108;48.094;11.838;2022-08-19T03:49:22;3.83;;;2.00;;
70558;SDS011;58108;48.094;11.838;2022-08-19T03:51:49;4.55;;;2.15;;
70558;SDS011;58108;48.094;11.838;2022-08-19T03:54:17;3.80;;;2.00;;
70558;SDS011;58108;48.094;11.838;2022-08-19T03:56:44;4.20;;;2.20;;
70558;SDS011;58108;48.094;11.838;2022-08-19T03:59:13;5.15;;;2.15;;
70558;SDS011;58108;48.094;11.838;2022-08-19T04:01:40;5.15;;;2.40;;
70558;SDS011;58108;48.094;11.838;2022-08-19T04:04:06;4.50;;;2.23;;
70558;SDS011;58108;48.094;11.838;2022-08-19T04:06:32;4.47;;;2.00;;
70558;SDS011;58108;48.094;11.838;2022-08-19T04:08:59;4.32;;;2.42;;
70558;SDS011;58108;48.094;11.838;2022-08-19T04:11:31;4.17;;;2.33;;
70558;SDS011;58108;48.094;11.838;2022-08-19T04:13:59;3.60;;;2.10;;
70558;SDS011;58108;48.094;11.838;2022-08-19T04:16:26;5.53;;;2.72;;
70558;SDS011;58108;48.094;11.838;2022-08-19T04:18:54;3.60;;;2.00;;
70558;SDS011;58108;48.094;11.838;2022-08-19T04:21:21;4.03;;;2.00;;
70558;SDS011;58108;48.094;11.838;2022-08-19T04:23:49;4.33;;;2.27;;
70558;SDS011;58108;48.094;11.838;2022-08-19T04:26:15;4.63;;;2.20;;
70558;SDS011;58108;48.094;11.838;2022-08-19T04:28:43;4.88;;;2.20;;
70558;SDS011;58108;48.094;11.838;2022-08-19T04:31:12;4.13;;;2.00;;
70558;SDS011;58108;48.094;11.838;2022-08-19T04:33:40;5.18;;;2.13;;
70558;SDS011;58108;48.094;11.838;2022-08-19T04:36:06;4.78;;;2.35;;
70558;SDS011;58108;48.094;11.838;2022-08-19T04:38:32;4.43;;;2.35;;
70558;SDS011;58108;48.094;11.838;2022-08-19T04:40:57;4.90;;;2.30;;
70558;SDS011;58108;48.094;11.838;2022-08-19T04:43:41;5.45;;;2.20;;
70558;SDS011;58108;48.094;11.838;2022-08-19T04:46:07;4.60;;;2.33;;
70558;SDS011;58108;48.094;11.838;2022-08-19T04:48:35;4.57;;;1.80;;
70558;SDS011;58108;48.094;11.838;2022-08-19T04:51:05;4.80;;;2.00;;
70558;SDS011;58108;48.094;11.838;2022-08-19T04:53:32;4.38;;;2.40;;
70558;SDS011;58108;48.094;11.838;2022-08-19T04:55:59;4.20;;;2.10;;
70558;SDS011;58108;48.094;11.838;2022-08-19T04:58:28;4.40;;;2.20;;
70558;SDS011;58108;48.094;11.838;2022-08-19T05:00:54;4.10;;;2.07;;
70558;SDS011;58108;48.094;11.838;2022-08-19T05:03:20;4.10;;;2.30;;
70558;SDS011;58108;48.094;11.838;2022-08-19T05:05:46;4.40;;;2.23;;
70558;SDS011;58108;48.094;11.838;2022-08-19T05:08:16;4.25;;;2.30;;
70558;SDS011;58108;48.094;11.838;2022-08-19T05:10:45;3.90;;;2.00;;
70558;SDS011;58108;48.094;11.838;2022-08-19T05:13:15;4.65;;;2.45;;
70558;SDS011;58108;48.094;11.838;2022-08-19T05:15:42;5.23;;;2.20;;
70558;SDS011;58108;48.094;11.838;2022-08-19T05:18:08;4.80;;;2.22;;
70558;SDS011;58108;48.094;11.838;2022-08-19T05:20:52;3.53;;;2.00;;
70558;SDS011;58108;48.094;11.838;2022-08-19T05:23:37;4.03;;;2.33;;
70558;SDS011;58108;48.094;11.838;2022-08-19T05:26:02;4.20;;;2.37;;
70558;SDS011;58108;48.094;11.838;2022-08-19T05:28:28;4.03;;;2.27;;
70558;SDS011;58108;48.094;11.838;2022-08-19T05:30:53;4.30;;;2.22;;
70558;SDS011;58108;48.094;11.838;2022-08-19T05:33:20;5.50;;;2.53;;
70558;SDS011;58108;48.094;11.838;2022-08-19T05:35:46;4.85;;;2.63;;
70558;SDS011;58108;48.094;11.838;2022-08-19T05:38:13;4.32;;;2.45;;
70558;SDS011;58108;48.094;11.838;2022-08-19T05:40:38;5.47;;;2.77;;
70558;SDS011;58108;48.094;11.838;2022-08-19T05:43:05;4.30;;;2.10;;
70558;SDS011;58108;48.094;11.838;2022-08-19T05:45:33;4.18;;;2.10;;
70558;SDS011;58108;48.094;11.838;2022-08-19T05:48:04;4.45;;;2.30;;
70558;SDS011;58108;48.094;11.838;2022-08-19T05:50:30;4.67;;;2.37;;
70558;SDS011;58108;48.094;11.838;2022-08-19T05:52:55;4.40;;;2.43;;
70558;SDS011;58108;48.094;11.838;2022-08-19T05:55:20;5.37;;;2.80;;
70558;SDS011;58108;48.094;11.838;2022-08-19T05:57:47;4.22;;;2.40;;
70558;SDS011;58108;48.094;11.838;2022-08-19T06:00:13;4.95;;;2.85;;
70558;SDS011;58108;48.094;11.838;2022-08-19T06:02:39;6.03;;;2.80;;
70558;SDS011;58108;48.094;11.838;2022-08-19T06:05:05;5.63;;;2.65;;
70558;SDS011;58108;48.094;11.838;2022-08-19T06:07:34;4.95;;;2.70;;
70558;SDS011;58108;48.094;11.838;2022-08-19T06:10:01;5.00;;;3.00;;
70558;SDS011;58108;48.094;11.838;2022-08-19T06:12:29;5.22;;;2.75;;
70558;SDS011;58108;48.094;11.838;2022-08-19T06:14:59;4.90;;;2.67;;
70558;SDS011;58108;48.094;11.838;2022-08-19T06:17:25;6.22;;;2.88;;
70558;SDS011;58108;48.094;11.838;2022-08-19T06:19:51;5.28;;;2.63;;
70558;SDS011;58108;48.094;11.838;2022-08-19T06:22:17;5.23;;;2.83;;
70558;SDS011;58108;48.094;11.838;2022-08-19T06:24:42;5.20;;;2.73;;
70558;SDS011;58108;48.094;11.838;2022-08-19T06:27:08;6.93;;;3.13;;
70558;SDS011;58108;48.094;11.838;2022-08-19T06:29:34;5.75;;;3.03;;
70558;SDS011;58108;48.094;11.838;2022-08-19T06:32:00;6.45;;;3.20;;
70558;SDS011;58108;48.094;11.838;2022-08-19T06:34:27;5.30;;;2.97;;
70558;SDS011;58108;48.094;11.838;2022-08-19T06:36:57;5.93;;;3.25;;
70558;SDS011;58108;48.094;11.838;2022-08-19T06:39:27;4.83;;;2.97;;
70558;SDS011;58108;48.094;11.838;2022-08-19T06:41:56;5.93;;;2.92;;
70558;SDS011;58108;48.094;11.838;2022-08-19T06:44:24;7.00;;;3.40;;
70558;SDS011;58108;48.094;11.838;2022-08-19T06:46:52;6.38;;;2.92;;
70558;SDS011;58108;48.094;11.838;2022-08-19T06:49:18;7.68;;;2.55;;
70558;SDS011;58108;48.094;11.838;2022-08-19T06:51:44;4.83;;;2.70;;
70558;SDS011;58108;48.094;11.838;2022-08-19T06:54:12;7.47;;;3.63;;
70558;SDS011;58108;48.094;11.838;2022-08-19T06:56:38;5.30;;;3.00;;
70558;SDS011;58108;48.094;11.838;2022-08-19T06:59:08;6.10;;;3.20;;
70558;SDS011;58108;48.094;11.838;2022-08-19T07:01:36;5.93;;;3.40;;
70558;SDS011;58108;48.094;11.838;2022-08-19T07:04:06;7.00;;;3.60;;
70558;SDS011;58108;48.094;11.838;2022-08-19T07:06:33;6.63;;;3.33;;
70558;SDS011;58108;48.094;11.838;2022-08-19T07:08:59;8.43;;;3.70;;
70558;SDS011;58108;48.094;11.838;2022-08-19T07:11:24;7.20;;;3.10;;
70558;SDS011;58108;48.094;11.838;2022-08-19T07:13:50;6.73;;;3.33;;
70558;SDS011;58108;48.094;11.838;2022-08-19T07:16:17;7.32;;;3.50;;
70558;SDS011;58108;48.094;11.838;2022-08-19T07:18:47;6.53;;;3.50;;
70558;SDS011;58108;48.094;11.838;2022-08-19T07:21:15;6.78;;;3.55;;
70558;SDS011;58108;48.094;11.838;2022-08-19T07:23:46;6.63;;;3.70;;
70558;SDS011;58108;48.094;11.838;2022-08-19T07:26:17;7.57;;;3.90;;
70558;SDS011;58108;48.094;11.838;2022-08-19T07:28:42;7.65;;;4.47;;
70558;SDS011;58108;48.094;11.838;2022-08-19T07:31:10;9.23;;;4.47;;
70558;SDS011;58108;48.094;11.838;2022-08-19T07:33:37;10.60;;;6.18;;
70558;SDS011;58108;48.094;11.838;2022-08-19T07:36:04;11.77;;;6.20;;
70558;SDS011;58108;48.094;11.838;2022-08-19T07:38:31;9.98;;;5.68;;
70558;SDS011;58108;48.094;11.838;2022-08-19T07:40:57;11.13;;;6.10;;
70558;SDS011;58108;48.094;11.838;2022-08-19T07:43:22;11.63;;;5.80;;
70558;SDS011;58108;48.094;11.838;2022-08-19T07:45:50;12.90;;;6.60;;
70558;SDS011;58108;48.094;11.838;2022-08-19T07:48:16;12.70;;;6.47;;
70558;SDS011;58108;48.094;11.838;2022-08-19T07:50:41;12.07;;;6.43;;
70558;SDS011;58108;48.094;11.838;2022-08-19T07:53:06;12.67;;;6.23;;
70558;SDS011;58108;48.094;11.838;2022-08-19T07:55:32;12.63;;;6.13;;
70558;SDS011;58108;48.094;11.838;2022-08-19T07:57:59;13.10;;;7.32;;
70558;SDS011;58108;48.094;11.838;2022-08-19T08:00:24;14.30;;;7.00;;
70558;SDS011;58108;48.094;11.838;2022-08-19T08:02:51;13.85;;;7.00;;
70558;SDS011;58108;48.094;11.838;2022-08-19T08:05:17;10.90;;;6.43;;
70558;SDS011;58108;48.094;11.838;2022-08-19T08:08:01;14.25;;;7.22;;
70558;SDS011;58108;48.094;11.838;2022-08-19T08:10:44;12.23;;;6.43;;
70558;SDS011;58108;48.094;11.838;2022-08-19T08:13:10;14.43;;;7.75;;
70558;SDS011;58108;48.094;11.838;2022-08-19T08:15:36;11.90;;;5.93;;
70558;SDS011;58108;48.094;11.838;2022-08-19T08:18:03;14.60;;;7.55;;
70558;SDS011;58108;48.094;11.838;2022-08-19T08:20:28;13.30;;;7.03;;
70558;SDS011;58108;48.094;11.838;2022-08-19T08:22:54;12.40;;;6.77;;
70558;SDS011;58108;48.094;11.838;2022-08-19T08:25:37;11.73;;;6.88;;
70558;SDS011;58108;48.094;11.838;2022-08-19T08:28:03;14.03;;;7.50;;
70558;SDS011;58108;48.094;11.838;2022-08-19T08:30:30;13.55;;;6.30;;
70558;SDS011;58108;48.094;11.838;2022-08-19T08:32:58;14.25;;;7.40;;
70558;SDS011;58108;48.094;11.838;2022-08-19T08:35:23;13.70;;;7.60;;
70558;SDS011;58108;48.094;11.838;2022-08-19T08:37:51;14.45;;;7.78;;
70558;SDS011;58108;48.094;11.838;2022-08-19T08:40:23;14.40;;;8.00;;
70558;SDS011;58108;48.094;11.838;2022-08-19T08:43:01;14.00;;;6.85;;
70558;SDS011;58108;48.094;11.838;2022-08-19T08:45:33;14.77;;;8.13;;
70558;SDS011;58108;48.094;11.838;2022-08-19T08:48:07;14.13;;;7.90;;
70558;SDS011;58108;48.094;11.838;2022-08-19T08:50:43;14.50;;;8.13;;
70558;SDS011;58108;48.094;11.838;2022-08-19T08:53:13;13.13;;;7.55;;
70558;SDS011;58108;48.094;11.838;2022-08-19T08:55:41;13.00;;;7.72;;
70558;SDS011;58108;48.094;11.838;2022-08-19T08:58:09;14.07;;;7.68;;
70558;SDS011;58108;48.094;11.838;2022-08-19T09:00:42;14.63;;;8.20;;
70558;SDS011;58108;48.094;11.838;2022-08-19T09:03:15;13.98;;;7.22;;
70558;SDS011;58108;48.094;11.838;2022-08-19T09:08:39;15.18;;;8.18;;
70558;SDS011;58108;48.094;11.838;2022-08-19T09:11:12;13.63;;;7.35;;
70558;SDS011;58108;48.094;11.838;2022-08-19T09:16:43;14.48;;;8.07;;
70558;SDS011;58108;48.094;11.838;2022-08-19T09:19:09;13.93;;;7.50;;
70558;SDS011;58108;48.094;11.838;2022-08-19T09:21:35;12.73;;;7.45;;
70558;SDS011;58108;48.094;11.838;2022-08-19T09:24:01;13.95;;;6.93;;
70558;SDS011;58108;48.094;11.838;2022-08-19T09:26:27;13.18;;;6.78;;
70558;SDS011;58108;48.094;11.838;2022-08-19T09:28:53;13.30;;;7.23;;
70558;SDS011;58108;48.094;11.838;2022-08-19T09:31:24;10.88;;;6.28;;
70558;SDS011;58108;48.094;11.838;2022-08-19T09:33:51;12.10;;;7.43;;
70558;SDS011;58108;48.094;11.838;2022-08-19T09:36:18;11.90;;;6.75;;
70558;SDS011;58108;48.094;11.838;2022-08-19T09:38:47;12.95;;;6.82;;
70558;SDS011;58108;48.094;11.838;2022-08-19T09:41:14;12.43;;;6.70;;
70558;SDS011;58108;48.094;11.838;2022-08-19T09:43:44;11.20;;;6.43;;
70558;SDS011;58108;48.094;11.838;2022-08-19T09:46:11;11.82;;;6.53;;
70558;SDS011;58108;48.094;11.838;2022-08-19T09:48:37;11.05;;;6.72;;
70558;SDS011;58108;48.094;11.838;2022-08-19T09:51:07;11.57;;;6.73;;
70558;SDS011;58108;48.094;11.838;2022-08-19T09:53:33;11.95;;;7.07;;
70558;SDS011;58108;48.094;11.838;2022-08-19T09:55:59;12.75;;;7.22;;
70558;SDS011;58108;48.094;11.838;2022-08-19T09:58:25;10.53;;;5.83;;
70558;SDS011;58108;48.094;11.838;2022-08-19T10:00:53;9.68;;;5.38;;
70558;SDS011;58108;48.094;11.838;2022-08-19T10:03:19;9.93;;;5.53;;
70558;SDS011;58108;48.094;11.838;2022-08-19T10:05:44;10.37;;;5.90;;
70558;SDS011;58108;48.094;11.838;2022-08-19T10:08:13;9.57;;;5.68;;
70558;SDS011;58108;48.094;11.838;2022-08-19T10:10:38;9.77;;;5.78;;
70558;SDS011;58108;48.094;11.838;2022-08-19T10:13:04;9.40;;;5.20;;
70558;SDS011;58108;48.094;11.838;2022-08-19T10:15:31;8.27;;;4.88;;
70558;SDS011;58108;48.094;11.838;2022-08-19T10:17:56;9.80;;;5.70;;
70558;SDS011;58108;48.094;11.838;2022-08-19T10:20:22;9.05;;;5.50;;
70558;SDS011;58108;48.094;11.838;2022-08-19T10:22:48;8.80;;;5.37;;
70558;SDS011;58108;48.094;11.838;2022-08-19T10:25:13;9.50;;;5.20;;
70558;SDS011;58108;48.094;11.838;2022-08-19T10:27:39;8.60;;;5.00;;
70558;SDS011;58108;48.094;11.838;2022-08-19T10:30:04;6.83;;;4.30;;
70558;SDS011;58108;48.094;11.838;2022-08-19T10:32:31;7.22;;;4.50;;
70558;SDS011;58108;48.094;11.838;2022-08-19T10:34:56;6.27;;;3.63;;
70558;SDS011;58108;48.094;11.838;2022-08-19T10:37:22;6.57;;;4.22;;
70558;SDS011;58108;48.094;11.838;2022-08-19T10:39:47;8.00;;;4.50;;
70558;SDS011;58108;48.094;11.838;2022-08-19T10:42:13;7.00;;;4.30;;
70558;SDS011;58108;48.094;11.838;2022-08-19T10:44:39;7.68;;;4.55;;
70558;SDS011;58108;48.094;11.838;2022-08-19T10:47:05;8.47;;;4.80;;
70558;SDS011;58108;48.094;11.838;2022-08-19T10:49:30;9.87;;;5.43;;
70558;SDS011;58108;48.094;11.838;2022-08-19T10:51:57;9.68;;;4.90;;
70558;SDS011;58108;48.094;11.838;2022-08-19T10:54:41;9.40;;;4.82;;
70558;SDS011;58108;48.094;11.838;2022-08-19T10:57:25;9.00;;;4.90;;
70558;SDS011;58108;48.094;11.838;2022-08-19T10:59:54;9.90;;;5.00;;
70558;SDS011;58108;48.094;11.838;2022-08-19T11:02:20;8.00;;;4.40;;
70558;SDS011;58108;48.094;11.838;2022-08-19T11:04:46;7.22;;;4.30;;
70558;SDS011;58108;48.094;11.838;2022-08-19T11:07:14;5.68;;;2.88;;
70558;SDS011;58108;48.094;11.838;2022-08-19T11:09:40;5.63;;;3.37;;
70558;SDS011;58108;48.094;11.838;2022-08-19T11:12:07;6.78;;;4.15;;
70558;SDS011;58108;48.094;11.838;2022-08-19T11:14:34;7.63;;;4.43;;
70558;SDS011;58108;48.094;11.838;2022-08-19T11:17:01;6.33;;;3.57;;
70558;SDS011;58108;48.094;11.838;2022-08-19T11:19:28;6.53;;;3.75;;
70558;SDS011;58108;48.094;11.838;2022-08-19T11:21:53;7.97;;;4.73;;
70558;SDS011;58108;48.094;11.838;2022-08-19T11:24:20;6.38;;;3.85;;
70558;SDS011;58108;48.094;11.838;2022-08-19T11:26:48;7.03;;;4.00;;
70558;SDS011;58108;48.094;11.838;2022-08-19T11:29:15;7.93;;;3.67;;
70558;SDS011;58108;48.094;11.838;2022-08-19T11:31:43;7.45;;;4.07;;
70558;SDS011;58108;48.094;11.838;2022-08-19T11:34:11;7.43;;;4.28;;
70558;SDS011;58108;48.094;11.838;2022-08-19T11:36:40;6.30;;;3.67;;
70558;SDS011;58108;48.094;11.838;2022-08-19T11:39:09;7.50;;;4.07;;
70558;SDS011;58108;48.094;11.838;2022-08-19T11:41:36;8.60;;;4.07;;
70558;SDS011;58108;48.094;11.838;2022-08-19T11:44:01;6.78;;;4.00;;
70558;SDS011;58108;48.094;11.838;2022-08-19T11:46:28;6.33;;;3.53;;
70558;SDS011;58108;48.094;11.838;2022-08-19T11:48:54;6.13;;;3.80;;
70558;SDS011;58108;48.094;11.838;2022-08-19T11:51:21;6.43;;;3.88;;
70558;SDS011;58108;48.094;11.838;2022-08-19T11:53:49;6.35;;;3.50;;
70558;SDS011;58108;48.094;11.838;2022-08-19T11:56:15;6.72;;;4.05;;
70558;SDS011;58108;48.094;11.838;2022-08-19T11:58:41;6.67;;;4.00;;
70558;SDS011;58108;48.094;11.838;2022-08-19T12:01:10;5.95;;;3.70;;
70558;SDS011;58108;48.094;11.838;2022-08-19T12:03:38;6.67;;;3.57;;
70558;SDS011;58108;48.094;11.838;2022-08-19T12:06:05;6.68;;;3.70;;
70558;SDS011;58108;48.094;11.838;2022-08-19T12:08:31;5.63;;;3.40;;
70558;SDS011;58108;48.094;11.838;2022-08-19T12:10:57;5.53;;;2.70;;
70558;SDS011;58108;48.094;11.838;2022-08-19T12:13:23;5.97;;;3.50;;
70558;SDS011;58108;48.094;11.838;2022-08-19T12:15:49;6.00;;;3.03;;
70558;SDS011;58108;48.094;11.838;2022-08-19T12:18:14;6.00;;;3.10;;
70558;SDS011;58108;48.094;11.838;2022-08-19T12:20:40;5.83;;;3.60;;
70558;SDS011;58108;48.094;11.838;2022-08-19T12:23:07;5.78;;;3.38;;
70558;SDS011;58108;48.094;11.838;2022-08-19T12:25:34;5.22;;;3.00;;
70558;SDS011;58108;48.094;11.838;2022-08-19T12:28:00;11.07;;;5.97;;
70558;SDS011;58108;48.094;11.838;2022-08-19T12:30:26;9.77;;;5.87;;
70558;SDS011;58108;48.094;11.838;2022-08-19T12:32:51;11.60;;;7.00;;
70558;SDS011;58108;48.094;11.838;2022-08-19T12:35:17;11.87;;;6.00;;
70558;SDS011;58108;48.094;11.838;2022-08-19T12:37:45;10.07;;;5.72;;
70558;SDS011;58108;48.094;11.838;2022-08-19T12:40:11;9.52;;;5.40;;
70558;SDS011;58108;48.094;11.838;2022-08-19T12:42:38;8.10;;;4.47;;
70558;SDS011;58108;48.094;11.838;2022-08-19T12:45:08;8.10;;;4.10;;
70558;SDS011;58108;48.094;11.838;2022-08-19T12:47:34;6.25;;;3.67;;
70558;SDS011;58108;48.094;11.838;2022-08-19T12:50:00;6.27;;;3.60;;
70558;SDS011;58108;48.094;11.838;2022-08-19T12:52:26;6.75;;;3.72;;
70558;SDS011;58108;48.094;11.838;2022-08-19T12:54:52;5.40;;;3.00;;
70558;SDS011;58108;48.094;11.838;2022-08-19T12:57:20;5.90;;;2.80;;
70558;SDS011;58108;48.094;11.838;2022-08-19T12:59:47;5.35;;;3.10;;
70558;SDS011;58108;48.094;11.838;2022-08-19T13:02:12;4.97;;;2.70;;
70558;SDS011;58108;48.094;11.838;2022-08-19T13:04:37;3.53;;;2.00;;
70558;SDS011;58108;48.094;11.838;2022-08-19T13:07:06;3.10;;;1.30;;
70558;SDS011;58108;48.094;11.838;2022-08-19T13:09:32;3.67;;;1.17;;
70558;SDS011;58108;48.094;11.838;2022-08-19T13:11:58;2.40;;;1.00;;
70558;SDS011;58108;48.094;11.838;2022-08-19T13:14:27;3.13;;;1.33;;
70558;SDS011;58108;48.094;11.838;2022-08-19T13:16:53;2.13;;;0.85;;
70558;SDS011;58108;48.094;11.838;2022-08-19T13:19:19;2.30;;;1.10;;
70558;SDS011;58108;48.094;11.838;2022-08-19T13:21:45;1.95;;;0.80;;
70558;SDS011;58108;48.094;11.838;2022-08-19T13:24:14;1.73;;;0.73;;
70558;SDS011;58108;48.094;11.838;2022-08-19T13:26:40;1.50;;;0.53;;
70558;SDS011;58108;48.094;11.838;2022-08-19T13:29:05;2.10;;;0.83;;
70558;SDS011;58108;48.094;11.838;2022-08-19T13:31:49;1.63;;;0.52;;
70558;SDS011;58108;48.094;11.838;2022-08-19T13:34:33;1.92;;;0.90;;
70558;SDS011;58108;48.094;11.838;2022-08-19T13:37:00;1.60;;;0.60;;
70558;SDS011;58108;48.094;11.838;2022-08-19T13:39:28;3.85;;;1.00;;
70558;SDS011;58108;48.094;11.838;2022-08-19T13:41:54;1.92;;;0.80;;
70558;SDS011;58108;48.094;11.838;2022-08-19T13:44:20;2.10;;;0.80;;
70558;SDS011;58108;48.094;11.838;2022-08-19T13:46:46;2.00;;;0.90;;
70558;SDS011;58108;48.094;11.838;2022-08-19T13:49:15;2.35;;;0.80;;
70558;SDS011;58108;48.094;11.838;2022-08-19T13:51:41;1.70;;;0.70;;
70558;SDS011;58108;48.094;11.838;2022-08-19T13:54:08;4.28;;;2.17;;
70558;SDS011;58108;48.094;11.838;2022-08-19T13:56:35;1.92;;;0.85;;
70558;SDS011;58108;48.094;11.838;2022-08-19T13:59:05;1.77;;;0.70;;
70558;SDS011;58108;48.094;11.838;2022-08-19T14:01:30;2.00;;;0.80;;
70558;SDS011;58108;48.094;11.838;2022-08-19T14:03:56;1.80;;;0.70;;
70558;SDS011;58108;48.094;11.838;2022-08-19T14:06:21;2.20;;;0.80;;
70558;SDS011;58108;48.094;11.838;2022-08-19T14:08:47;2.00;;;0.80;;
70558;SDS011;58108;48.094;11.838;2022-08-19T14:11:12;1.83;;;0.70;;
70558;SDS011;58108;48.094;11.838;2022-08-19T14:13:39;1.90;;;0.88;;
70558;SDS011;58108;48.094;11.838;2022-08-19T14:16:08;1.77;;;0.60;;
70558;SDS011;58108;48.094;11.838;2022-08-19T14:18:35;2.13;;;0.97;;
70558;SDS011;58108;48.094;11.838;2022-08-19T14:21:01;1.90;;;0.80;;
70558;SDS011;58108;48.094;11.838;2022-08-19T14:23:27;1.90;;;0.75;;
70558;SDS011;58108;48.094;11.838;2022-08-19T14:25:53;2.00;;;0.97;;
70558;SDS011;58108;48.094;11.838;2022-08-19T14:28:46;2.30;;;1.05;;
70558;SDS011;58108;48.094;11.838;2022-08-19T14:31:12;2.60;;;1.03;;
70558;SDS011;58108;48.094;11.838;2022-08-19T14:33:44;2.42;;;1.27;;
70558;SDS011;58108;48.094;11.838;2022-08-19T14:36:11;2.28;;;1.08;;
70558;SDS011;58108;48.094;11.838;2022-08-19T14:38:36;2.73;;;1.20;;
70558;SDS011;58108;48.094;11.838;2022-08-19T14:41:12;3.27;;;1.33;;
70558;SDS011;58108;48.094;11.838;2022-08-19T14:43:44;3.05;;;1.23;;